Rozšířené hledání} Informace o členství Kontaktní informace Seznam uživatelů Kalendář Spřátelené weby Honda-club.cz Přihlásit se k emailu
[0]
Linka Uživatelské skupiny Linka Galerie avatarů Linka Kdo je online Linka
Linka Jak se stát členem klubu Linka Stáhnout stanovy sdružení Linka Výhody pro členy klubu Linka
   Garáž -> Prohlížet
Přehled autNej autaSeznam autHledat autoPřehled servisůPřehled obchodůPřehled sprintůMěření výkonů

Jdi na stránku Předchozí  1, 2, 3 ... 15, 16, 17, 18  Další 
Třídění aut dle   V   
Foto Rok
 
Značka
 
Model
 
Barva
 
Majitel
 
Zhlédnuto
 
Modifikace
 
Aktualizováno
 
  1990 Honda CR-X Světle-modrá  Snekk 2828 3 16.2.2010 , 21:29
  1991 Honda CR-X šedá  sivek 4359 28 16.2.2010 , 19:42
  1996 Honda Civic red  2Patrik2 740 0 15.2.2010 , 20:27
  1993 Honda CR-X DelSol oranzova perlet  mari 1 3658 6 15.2.2010 , 1:36
  1995 Honda Civic zelená perleť  Stani 1765 0 12.2.2010 , 20:22
  1997 Honda Civic červená  Stani 1157 0 12.2.2010 , 20:21
  1991 Honda CR-X šedá metal  Stani 2460 7 12.2.2010 , 20:14
  1994 Honda Civic Coupe černa  BLACK HAWK 869 1 12.2.2010 , 13:11
  2002 Honda Civic Type-R stříbrná  area07 7029 2 12.2.2010 , 0:01
  1998 Honda Civic EK4 černa  miramax 3273 0 11.2.2010 , 11:43
  1991 Honda Civic Šedivá  Ginda 3121 0 10.2.2010 , 23:28
  1990 Honda Civic šedá pastel  HonDan 5564 16 9.2.2010 , 21:17
  1991 Honda Prelude   Hondatras 876 0 8.2.2010 , 20:32
  1988 Honda CR-X červená  Sheney 566 0 8.2.2010 , 12:18
  2007 Honda Accord tm.modrá met.  jimih 2466 0 7.2.2010 , 12:08
  1996 Honda Civic Stribrna  miki85 2249 0 4.2.2010 , 12:57
  2002 Honda CR-V   Civinka 1109 0 4.2.2010 , 10:22
  2003 Honda Civic Sport cerna s modrou perleti  LUTEC 3006 5 4.2.2010 , 9:00
  1992 Honda Civic Černá  Crusty 1785 3 3.2.2010 , 16:46
  1995 Honda Civic Coupe černá  evžen 1220 1 2.2.2010 , 20:04
  1998 Honda Civic EK4 bílá  rake-motors 1422 0 30.1.2010 , 13:35
  1991 Honda CR-X černá metalíza  chosse.j 2165 15 27.1.2010 , 0:33
  1997 Honda Civic Vti Modrá  Matias 2558 1 26.1.2010 , 11:36
  1991 Honda CR-X VTEC zelena  Zdeny-honda 2903 0 26.1.2010 , 8:50
  1998 Honda Accord vínová  Kubelik 731 0 25.1.2010 , 19:42
  1997 Honda Civic VTEC tmavě fialová  whiteorb 1138 0 23.1.2010 , 20:05
  1999 Honda Accord Type-R Bílá  David Marvan 2555 0 20.1.2010 , 19:07
  1997 Honda Civic Pirates Black Pearl  damim 547 0 19.1.2010 , 23:10
  1993 Honda Prelude Červená  Mystic 2285 0 19.1.2010 , 20:41
  2000 Honda S2000 Berlina Black  Havo 4277 1 16.1.2010 , 13:11
  2001 Honda S2000 stribrna  DaM 4531 0 16.1.2010 , 11:12
  1994 Honda Civic Vti červená r-81  Roverman 9363 3 16.1.2010 , 9:06
  2000 Honda HR-V Stříbrná metalíza  Puzzlehead 761 0 16.1.2010 , 2:06
  1992 Honda Civic červená  CZento 7148 32 16.1.2010 , 0:07
  1997 Honda Prelude modrá  R6D3K 2411 6 14.1.2010 , 0:04
  1994 Honda Civic červená  mti 1008 0 13.1.2010 , 9:49
  1986 Honda CR-X Modra  billCRX1G 1751 0 11.1.2010 , 21:50
  1996 Honda Civic Coupe Milano Red  MEJV 1330 0 11.1.2010 , 11:09
  1992 Honda CR-X červená  jaykob 2649 3 9.1.2010 , 10:46
  2006 Honda Civic modra  lukas2122 661 0 9.1.2010 , 8:50
  1990 Honda CR-X červena  juturn 1812 0 8.1.2010 , 17:58
  1991 Honda CR-X stribrna  mike102 685 0 7.1.2010 , 19:15
  1987 Honda CR-X Černa  retrodado 1764 0 6.1.2010 , 13:25
  1995 Honda Civic zlatá metalíza  Tom.Bryan 2527 0 5.1.2010 , 22:28
  1996 Honda CR-X DelSol červená  Zipík 1078 0 5.1.2010 , 20:14
  1998 Honda Civic Aerodeck šedá metaliza  melman 2538 0 5.1.2010 , 18:17
  2008 Honda Civic Type-R Bila  trackwhore 4974 1 5.1.2010 , 7:03
  1995 Honda CR-X DelSol černá  tomekcrx 1598 0 2.1.2010 , 21:06
  1989 Honda Accord Aerodeck stříbrná  Ajsik 2663 0 29.12.2009 , 1:08
  1992 Honda Civic modrá metla  Pick-Creek 1907 3 27.12.2009 , 19:56
  1994 Honda CR-X DelSol cervena  swer 1762 0 24.12.2009 , 23:48
  1988 Honda Prelude červená  Ondra 994 1 24.12.2009 , 22:20
  1997 Honda Prelude VTEC cypres green pearl  odos 4040 0 24.12.2009 , 20:03
  1999 Honda Civic VTEC sicilian red pearl  Marty86 629 0 24.12.2009 , 16:44
  1992 Honda Civic Modrá metalíza  Alweron 1470 1 23.12.2009 , 19:36
  1992 Honda Civic origo červená metalíza  Whistler 1523 0 21.12.2009 , 22:47
  1993 Honda Civic Vti   barel 2876 1 21.12.2009 , 22:28
  1992 Honda Civic červená + bílé pruhy  Tinka 2120 0 17.12.2009 , 15:09
  1998 Honda Prelude S Harley Davidson Grey  TomasVti 2266 0 9.12.2009 , 16:47
  1998 Honda Integra Type-R Championship white  sedrik 2791 0 7.12.2009 , 13:35
  2009 Honda Civic černá  danok 1562 0 27.11.2009 , 20:24
  1996 Honda Civic zelená metal  jelinek79 1691 7 27.11.2009 , 17:11
  1991 Honda CR-X střibrna metla  Jamalek 717 0 23.11.2009 , 23:20
  1997 Honda Accord Coupe Bílá  Vash the Accord 2400 0 22.11.2009 , 2:56
  1991 Honda CR-X Šedá  michhi 2618 1 20.11.2009 , 12:38
  2004 Honda Accord šedá metalíza  Timberland 1967 0 18.11.2009 , 21:12
  1995 Honda Civic zel.met  HondákTom 1131 0 16.11.2009 , 11:35
  1995 Honda Civic Coupe černá  coodl 5404 6 14.11.2009 , 14:57
  1989 Honda Civic červená  Ernst.p 1569 0 12.11.2009 , 13:12
  1997 Honda Civic EK4   luke skunkwalker2 983 0 11.11.2009 , 15:46
  1999 Honda Accord stříbrná metalíza  Algol 1680 0 11.11.2009 , 0:15
  1994 Honda Civic Modrá  speedy5 915 0 8.11.2009 , 18:14
  1997 Honda Civic cervena  martin urban 627 0 6.11.2009 , 17:31
  1993 Honda Civic VTEC Vínová  scoby 1555 2 3.11.2009 , 19:46
  1997 Honda Civic Bordova  marko3 1573 0 1.11.2009 , 20:32
  1999 Honda Civic VTEC SuperSonic Blue Pearl  Jarys 4611 13 30.10.2009 , 21:49
  1991 Honda Civic VT černá  Bouky 2858 0 30.10.2009 , 15:00
  1990 Honda CR-X červená  OzzmanCRX 1662 0 30.10.2009 , 1:48
  1990 Rover 200 GSi vínová  Hrošík 3919 17 27.10.2009 , 20:17
  2000 Honda Prelude Stříbrná  Picbill 1074 0 24.10.2009 , 7:54
  1997 Honda Accord Black Type A  Jendis 729 0 23.10.2009 , 6:41
  1995 Honda Civic Orange lambo  AirEddie 2759 1 21.10.2009 , 8:01
  1999 Honda Accord Type-R Milano red  Pauli 6813 35 17.10.2009 , 19:11
  1991 Honda CR-X červená  MattiK 9002 0 17.10.2009 , 9:30
  1999 Honda Accord Type-R bílá  Petrvti 3822 0 15.10.2009 , 10:26
  1997 Honda Accord Coupe Zelená metalíza  1723 0 11.10.2009 , 19:40
  1997 Honda Accord šedá světlá (nebo spíš stříbrná tmavá)  caras 2438 4 11.10.2009 , 16:19
  1997 Honda Civic   truest 1911 1 6.10.2009 , 17:37
  1992 Honda Civic Černá  tima.j 1865 8 5.10.2009 , 15:49
  1997 Honda Civic Červená  Monina 584 0 2.10.2009 , 14:13
  1998 Honda Prelude VTEC černá metalíza  Y@rin 1653 0 25.9.2009 , 14:38
  1995 Honda Accord divoce zelená  SNAKEJEHAD 753 1 24.9.2009 , 10:03
  2003 Honda Stream grey metalic  Sporťák 2747 0 23.9.2009 , 16:04
  1995 Honda Civic Coupe Vínová metal.  Meda 10438 17 21.9.2009 , 12:01
  1994 Honda Prelude VTEC červena  Jarda-SannyCars 4328 0 20.9.2009 , 21:09
  1994 Honda Civic Coupe Modro-zelená metal.  Sťju 2347 1 19.9.2009 , 21:03
  1998 Honda Civic Vti cervena  bullagi 1639 0 19.9.2009 , 11:27
  1991 Honda CR-X Cerveno-bila Mugen  Jerry_J 2670 0 18.9.2009 , 20:34
  1998 Honda Civic modrá  Nemda 1495 0 17.9.2009 , 15:31
  1995 Honda Civic Coupe stříbrná  Maca.022 824 7 16.9.2009 , 23:13
  1993 Honda Civic Vínová  Audys19 1259 0 10.9.2009 , 12:55
  1997 Honda Prelude červená  vachicek 4306 5 8.9.2009 , 13:45
  2000 Honda Civic Tmavě zelená (Baikal green pearl)  Ivoss 4850 25 7.9.2009 , 17:58
  1995 Honda CR-X DelSol žlutá  Heelen 2172 0 7.9.2009 , 9:57
  1995 Honda Civic zatim oranzova  Prelude3g 1064 0 25.8.2009 , 22:15
  1996 Honda Accord Modrá metalíza  Tomášek 4237 2 23.8.2009 , 13:53
  2003 Honda Civic Sport Satin Silver Metallic  TomiQ 4743 8 19.8.2009 , 20:27
  1997 Honda CR-X DelSol červená  Favi 1783 1 18.8.2009 , 20:24
  1995 Honda Accord udajne seda-metal :-D  Ptak 1675 0 9.8.2009 , 0:36
  1999 Honda Integra Type-R Championship white  Caltiger 5816 5 4.8.2009 , 13:30
  1991 Honda CR-X červená  Ramik 1897 0 4.8.2009 , 9:59
  1993 Honda Civic   jimb 768 0 3.8.2009 , 8:12
  1992 Honda Civic Červená  Riči 1478 0 2.8.2009 , 19:05
  2000 Honda Accord stribrna+cerna  Dave23 783 0 2.8.2009 , 17:51
  1995 Honda Accord LÁHVOVĚZELENÁ METLA  Hanz 4111 0 1.8.2009 , 21:24
  1993 Honda Civic Stříbrná  civa93 2046 3 30.7.2009 , 13:40
  1997 Honda Civic Vti pirates black pearl  LukiS 3318 24 29.7.2009 , 19:32
  1992 Honda CR-X DelSol Červená  Thomaz 1789 4 29.7.2009 , 10:46
  1992 Honda Concerto CERVENA  DARUDE2000 1160 0 28.7.2009 , 5:42
  1998 Honda Civic modra tmava  ignac 3727 22 27.7.2009 , 17:23
  2009 Honda Jazz fialová tmavá perleťová  PHonzejk 1542 0 26.7.2009 , 20:37
  1993 Honda Civic černá  vtivti 2929 0 25.7.2009 , 13:13
  2006 Honda S2000 Silverstone  mikys2000 2924 7 21.7.2009 , 20:06
  1984 Honda CR-X červená  gizmi 3181 11 19.7.2009 , 21:13
  2007 Honda Civic Sport černá  Keyplus 981 0 18.7.2009 , 12:57
  1991 Honda Civic modroseda metaliza  marty89 2590 11 15.7.2009 , 19:31
  2000 Honda Accord Type-R black pearl pirate  pani esova 1946 9 14.7.2009 , 10:13
  1999 Honda Accord základní červená  menor 3118 0 13.7.2009 , 16:40
  1988 Honda Civic červená  Wu-T.A. 1692 0 12.7.2009 , 23:47
  1987 Honda Accord Aerodeck zlata-metal-cerna-matna  arny 2251 0 12.7.2009 , 19:34
  1988 Honda CR-X Stribrna metal  Marphy 2585 0 11.7.2009 , 13:50
  1991 Honda Civic R68  Lord British 1698 0 11.7.2009 , 0:34
  1990 Honda CR-X black  ne-moc 2743 0 8.7.2009 , 23:31
  1994 Honda Civic Coupe černá  juta 856 0 5.7.2009 , 23:45
  1987 Honda Civic GT černá  Minor 3358 0 5.7.2009 , 22:57
  1991 Honda CR-X VTEC v budoucnu šedá metla  Minor 4498 0 5.7.2009 , 22:19
  2004 Honda Civic Cool Jade Silver G517M-světle zelená metla  Leke 9332 0 4.7.2009 , 18:52
  1996 Honda Civic VTEC Červená  hawk14 933 0 29.6.2009 , 21:45
  1995 Honda Civic Modrozelená metalíza  Kentán 2138 17 29.6.2009 , 19:07
  1995 Honda Prelude Vínová červena  max-cz 2377 0 29.6.2009 , 17:45
  2002 Honda Civic Stribrna  CJMonty 6639 0 29.6.2009 , 13:31
  1993 Honda Civic Černá  Klobrcík 3306 15 25.6.2009 , 11:38
  1989 Honda CR-X čierna  Filier 1836 0 22.6.2009 , 16:36
  1998 Honda Civic Aerodeck strieborná metalíza  Ing.Dziwy 1593 0 20.6.2009 , 14:45
  1996 Honda Prelude black pearl  cyborg 4276 15 18.6.2009 , 16:28
  1994 Honda Prelude modrozelená metalíza  Maty 3527 9 17.6.2009 , 22:43
  1987 Honda CR-X fialovocerna  Edik. 920 0 16.6.2009 , 13:56
  1997 Honda Civic THAITIANGREENPEARL  paralen plus 1452 0 15.6.2009 , 23:24
  1994 Honda Civic bílá  ka8ooi 4698 3 14.6.2009 , 23:57
  2001 Honda Accord Amazónská zeleň  DrTc 2477 1 14.6.2009 , 21:40
  1989 Honda Accord Aerodeck bílá  Tomáš Zeiner 969 0 11.6.2009 , 12:35
  1992 Honda Civic stříbrná  Zelo 1511 0 7.6.2009 , 9:37
  1999 Honda Accord modrá  dydzej 2092 3 5.6.2009 , 8:07
  1991 Honda Civic Shuttle červená metla  Tharrrk 1412 0 3.6.2009 , 19:31
  1995 Honda Civic Červená  xxvenaxx 1507 0 2.6.2009 , 9:40
  1990 Honda CR-X černá perlet  cala 817 0 1.6.2009 , 21:13
  1995 Honda Civic Coupe cierna so striebornou perletou  Rodom 3015 0 31.5.2009 , 13:44
  2003 Honda Civic Type-R Night Hawk  Milan CTR 6949 5 31.5.2009 , 10:56
  1997 Honda Prelude VTEC červená  Jelda 2069 0 28.5.2009 , 15:31
  1990 Honda Civic černá  Madyk 1842 9 27.5.2009 , 17:19
  1997 Honda Civic VTEC Černá metalíza  wejmi 1897 0 26.5.2009 , 20:17
  1997 Honda Civic Vti Sicilian red pearl  boleq 1460 0 22.5.2009 , 16:00
  1989 Honda Civic Real Time 4WD Šedá  SpideX 2490 0 19.5.2009 , 1:42
  1991 Honda CR-X čierna  Trso 2307 0 18.5.2009 , 20:17
  1997 Honda Civic Coupe černá  Horďa-Black 4350 9 16.5.2009 , 17:55
  1995 Honda Civic Bielo-Čierna  s8n 1563 0 15.5.2009 , 12:18
  1993 Honda Civic Vti zelená metalíza  shallowhal 3007 0 13.5.2009 , 14:12
  1999 Honda Accord Titan Silver  RuKa 792 0 13.5.2009 , 13:49
  1993 Honda Civic Vínová  Lukys 1852 0 12.5.2009 , 23:54
  1993 Honda CR-X DelSol modrá metalíza  gazin 1506 0 12.5.2009 , 9:49
  1996 Honda Accord Tmavě-červená metaliza  Klemoš 2628 6 11.5.2009 , 20:24
  1990 Honda CR-X Červená  Hondička 2071 0 11.5.2009 , 14:44
  1985 Honda CR-X černá  PepaCR5446 7338 0 10.5.2009 , 22:25
  1993 Honda Civic vinove cervena  Miro 1165 0 10.5.2009 , 15:30
  1991 Honda Accord Aerodeck zelená  dan7970 1889 0 8.5.2009 , 23:42
  1994 Honda Civic VTEC Bílá  Kong 711 0 8.5.2009 , 12:51
  1991 Honda Accord Tmave sediva metaliza  Wizeon 1800 0 3.5.2009 , 22:35
  1996 Honda Civic červeno černá  Sopy 1682 1 3.5.2009 , 21:10
  1994 Honda Civic VTEC čena a modra metaliza  radasss 1963 0 2.5.2009 , 23:13
  1997 Honda Civic střibrná  aztecc 1407 0 2.5.2009 , 22:18
  1997 Honda Civic stříbrná  Jurais 2181 0 2.5.2009 , 7:08
  1998 Honda CR-V černá  HkingH 1695 0 1.5.2009 , 11:26
  1997 Honda Accord orleans blue pearl(tmavě modrá met)  TJimmy 971 0 27.4.2009 , 22:52
  2002 Honda Stream bílá  marab 7408 0 27.4.2009 , 10:48
  1994 Honda Civic Červeno-černá  Mardoc 4189 10 25.4.2009 , 12:30
  1997 Honda Civic Type-R Tm.modrá metalíza  karel 3223 1 25.4.2009 , 7:35
  2008 Honda Civic černá  MIML's 1746 0 24.4.2009 , 11:07
  1995 Honda Civic černo zelená  Fisho 1866 0 24.4.2009 , 9:58
  1994 Honda Civic Bílo černá  Jugmi 2030 3 22.4.2009 , 21:06
  1990 Honda Civic VT Black pearl Alfa Romeo  TommyVTEC 8190 15 21.4.2009 , 23:22
  2001 Honda Civic VTEC Atlantic Blue Pearl 43  Tajda 2493 2 15.4.2009 , 15:07
  1991 Honda Prelude Si Tmavě modrá metalíza  Jakub Erben 6211 4 13.4.2009 , 18:54
  1995 Honda Civic modrá metalíza  dejsyk 3488 18 11.4.2009 , 13:23
  1992 Honda Civic Vti Blue  Žemli 6749 16 11.4.2009 , 10:53
  2009 Honda Accord Tourer šedá  Lisak2 1263 0 11.4.2009 , 8:36
  1998 Honda Civic Pirates Black Pearl  habix 3358 5 10.4.2009 , 22:20
  1988 Honda CR-X Červená  Andrew.DC07 2658 0 10.4.2009 , 21:53
  1995 Honda Civic Vti   nanoVTEC 3869 0 10.4.2009 , 13:03
  2008 Honda Civic Type-R Bílá  Cikán 2881 0 9.4.2009 , 11:11
  1994 Honda Civic VTEC červená  poki 1423 3 8.4.2009 , 13:23
Jdi na stránku Předchozí  1, 2, 3 ... 15, 16, 17, 18  Další 
Třídění aut dle   V   



Board Security

(97373 útoků)
::  www.honda-club.cz  :: poslední témata RSS TOPlist

[ Čas: 0.5002s ][ Dotazy: 25 (0.4130s) ][ GZIP on - Debug on ]